Time;durP1;ratioP1;P1;durP2;ratioP2;P2;SDS_P1;SDS_P2;PMS_P1;PMS_P2;Temp;Humidity;BMP_temperature;BMP_pressure;BME280_temperature;BME280_humidity;BME280_pressure;Samples;Min_cycle;Max_cycle;Signal;HPM_P1;HPM_P2
2023/07/20 00:01:24;;;;;;;8.35;4.05;;;;;;;;;;5902961;28;20044;-80
2023/07/20 00:04:33;;;;;;;;;;;;;;;;;;5906448;28;20335;-82
2023/07/20 00:07:25;;;;;;;8.90;3.58;;;;;;;;;;5904627;28;20294;-80
2023/07/20 00:10:16;;;;;;;7.38;3.90;;;;;;;;;;5905889;28;20055;-80
2023/07/20 00:13:06;;;;;;;10.30;3.45;;;;;;;;;;5906134;28;20131;-79
2023/07/20 00:15:58;;;;;;;11.98;3.80;;;;;;;;;;5906300;28;20064;-80
2023/07/20 00:18:49;;;;;;;10.70;3.95;;;;;;;;;;5905573;28;20127;-81
2023/07/20 00:21:42;;;;;;;8.00;3.78;;;;;;;;;;5904495;28;20085;-80
2023/07/20 00:24:33;;;;;;;8.95;3.80;;;;;;;;;;5905511;28;20045;-80
2023/07/20 00:27:24;;;;;;;10.10;4.18;;;;;;;;;;5905511;28;20048;-79
2023/07/20 00:30:15;;;;;;;9.90;4.22;;;;;;;;;;5905500;28;20052;-82
2023/07/20 00:33:10;;;;;;;9.35;4.68;;;;;;;;;;5905563;28;20052;-80
2023/07/20 00:36:02;;;;;;;12.43;3.92;;;;;;;;;;5905409;28;20114;-80
2023/07/20 00:38:52;;;;;;;10.05;3.90;;;;;;;;;;5906009;28;20052;-80
2023/07/20 00:41:43;;;;;;;9.50;4.00;;;;;;;;;;5905380;28;20123;-80
2023/07/20 00:44:34;;;;;;;8.52;4.15;;;;;;;;;;5904164;28;20041;-80
2023/07/20 00:47:27;;;;;;;16.90;4.40;;;;;;;;;;5896838;28;20048;-79
2023/07/20 00:50:18;;;;;;;14.45;4.55;;;;;;;;;;5903623;28;20527;-79
2023/07/20 00:53:09;;;;;;;7.28;3.72;;;;;;;;;;5903689;28;20053;-80
2023/07/20 00:56:00;;;;;;;11.88;4.20;;;;;;;;;;5904351;28;20198;-80
2023/07/20 00:58:52;;;;;;;9.38;4.60;;;;;;;;;;5904115;28;20499;-80
2023/07/20 01:01:43;;;;;;;14.85;5.45;;;;;;;;;;5905188;28;20059;-79
2023/07/20 01:04:35;;;;;;;9.70;4.63;;;;;;;;;;5904587;28;20083;-81
2023/07/20 01:07:36;;;;;;;12.00;4.93;;;;;;;;;;5903770;28;20526;-80
2023/07/20 01:10:57;;;;;;;9.45;4.50;;;;;;;;;;5887817;28;20048;-79
2023/07/20 01:13:48;;;;;;;8.10;4.53;;;;;;;;;;5904071;28;20419;-80
2023/07/20 01:16:39;;;;;;;8.45;4.53;;;;;;;;;;5903784;28;20048;-80
2023/07/20 01:19:30;;;;;;;10.35;4.47;;;;;;;;;;5905083;28;20060;-80
2023/07/20 01:22:51;;;;;;;14.07;5.30;;;;;;;;;;5909691;28;20059;-81
2023/07/20 01:25:53;;;;;;;7.50;3.75;;;;;;;;;;5909409;28;20048;-79
2023/07/20 01:29:18;;;;;;;13.27;3.75;;;;;;;;;;5908025;28;20521;-80
2023/07/20 01:32:10;;;;;;;7.65;3.40;;;;;;;;;;5908431;28;20114;-80
2023/07/20 01:35:02;;;;;;;5.47;2.95;;;;;;;;;;5909840;28;20045;-79
2023/07/20 01:37:54;;;;;;;6.93;3.45;;;;;;;;;;5907725;28;20064;-81
2023/07/20 01:40:46;;;;;;;8.02;2.97;;;;;;;;;;5908800;28;20127;-80
2023/07/20 01:43:36;;;;;;;7.00;2.58;;;;;;;;;;5907492;28;20040;-81
2023/07/20 01:46:27;;;;;;;14.00;2.78;;;;;;;;;;5907115;28;20546;-80
2023/07/20 01:49:18;;;;;;;7.47;3.17;;;;;;;;;;5908377;28;20060;-80
2023/07/20 01:52:09;;;;;;;6.63;3.13;;;;;;;;;;5908637;28;20045;-81
2023/07/20 01:55:00;;;;;;;7.95;3.15;;;;;;;;;;5909165;28;20055;-81
2023/07/20 01:57:51;;;;;;;7.47;3.22;;;;;;;;;;5908375;28;20447;-80
2023/07/20 02:00:41;;;;;;;5.57;2.97;;;;;;;;;;5908261;28;20054;-83
2023/07/20 02:03:32;;;;;;;7.78;3.22;;;;;;;;;;5908105;28;20085;-81
2023/07/20 02:06:23;;;;;;;6.93;3.03;;;;;;;;;;5908315;28;20045;-81
2023/07/20 02:09:14;;;;;;;6.75;2.70;;;;;;;;;;5908210;28;20705;-81
2023/07/20 02:12:05;;;;;;;12.65;3.60;;;;;;;;;;5908045;28;20139;-80
2023/07/20 02:14:56;;;;;;;8.30;3.20;;;;;;;;;;5908340;28;20056;-80
2023/07/20 02:17:47;;;;;;;8.93;3.13;;;;;;;;;;5908047;28;20545;-80
2023/07/20 02:20:38;;;;;;;4.25;2.58;;;;;;;;;;5907847;28;20055;-81
2023/07/20 02:23:28;;;;;;;6.85;2.63;;;;;;;;;;5907691;28;20052;-79
2023/07/20 02:26:19;;;;;;;6.50;2.38;;;;;;;;;;5907872;28;20045;-80
2023/07/20 02:29:11;;;;;;;5.07;2.63;;;;;;;;;;5907507;28;20106;-80
2023/07/20 02:32:02;;;;;;;9.07;2.92;;;;;;;;;;5905290;28;20415;-81
2023/07/20 02:34:53;;;;;;;5.88;2.20;;;;;;;;;;5908153;28;20060;-80
2023/07/20 02:37:44;;;;;;;5.70;2.83;;;;;;;;;;5907632;28;20498;-81
2023/07/20 02:40:35;;;;;;;5.63;2.80;;;;;;;;;;5907575;28;20048;-80
2023/07/20 02:43:26;;;;;;;6.97;3.10;;;;;;;;;;5907475;28;20040;-81
2023/07/20 02:46:16;;;;;;;5.20;3.00;;;;;;;;;;5907229;28;20055;-80
2023/07/20 02:49:07;;;;;;;10.55;3.53;;;;;;;;;;5907354;28;20134;-80
2023/07/20 02:51:58;;;;;;;5.18;3.28;;;;;;;;;;5907819;28;20045;-81
2023/07/20 02:54:48;;;;;;;7.88;2.88;;;;;;;;;;5907246;28;20044;-82
2023/07/20 02:57:39;;;;;;;8.07;2.70;;;;;;;;;;5906829;28;20052;-83
2023/07/20 03:00:30;;;;;;;5.90;2.42;;;;;;;;;;5905319;28;20052;-83
2023/07/20 03:03:21;;;;;;;7.03;3.38;;;;;;;;;;5907053;28;20058;-83
2023/07/20 03:06:16;;;;;;;4.80;2.45;;;;;;;;;;5907193;28;20395;-86
2023/07/20 03:09:07;;;;;;;3.95;2.22;;;;;;;;;;5907698;28;20045;-83
2023/07/20 03:11:57;;;;;;;9.55;2.53;;;;;;;;;;5907708;28;20044;-83
2023/07/20 03:14:48;;;;;;;5.85;2.92;;;;;;;;;;5907285;28;20052;-83
2023/07/20 03:17:39;;;;;;;6.97;2.40;;;;;;;;;;5906848;28;20040;-82
2023/07/20 03:20:31;;;;;;;4.72;2.15;;;;;;;;;;5906402;28;20135;-83
2023/07/20 03:23:21;;;;;;;6.68;2.50;;;;;;;;;;5905090;28;20059;-83
2023/07/20 03:26:12;;;;;;;4.43;2.20;;;;;;;;;;5906724;28;20040;-82
2023/07/20 03:29:05;;;;;;;7.40;2.38;;;;;;;;;;5906756;28;20049;-83
2023/07/20 03:31:55;;;;;;;7.15;2.35;;;;;;;;;;5906811;28;20411;-82
2023/07/20 03:34:46;;;;;;;5.30;2.53;;;;;;;;;;5906276;28;20054;-83
2023/07/20 03:37:38;;;;;;;5.15;2.55;;;;;;;;;;5906271;28;20048;-83
2023/07/20 03:40:29;;;;;;;7.40;3.35;;;;;;;;;;5905802;28;20048;-81
2023/07/20 03:43:21;;;;;;;6.88;2.90;;;;;;;;;;5905910;28;20044;-84
2023/07/20 03:46:12;;;;;;;5.28;2.75;;;;;;;;;;5904800;28;20060;-82
2023/07/20 03:49:03;;;;;;;5.40;3.08;;;;;;;;;;5904321;28;20052;-83
2023/07/20 03:51:54;;;;;;;9.73;2.47;;;;;;;;;;5906334;28;20048;-83
2023/07/20 03:54:45;;;;;;;7.43;2.75;;;;;;;;;;5905830;28;20182;-82
2023/07/20 03:57:36;;;;;;;4.95;2.40;;;;;;;;;;5905904;28;20047;-82
2023/07/20 04:00:27;;;;;;;5.53;2.45;;;;;;;;;;5905616;28;20471;-83
2023/07/20 04:03:19;;;;;;;3.90;2.22;;;;;;;;;;5905926;28;20063;-81
2023/07/20 04:06:10;;;;;;;5.85;2.45;;;;;;;;;;5904318;28;20044;-81
2023/07/20 04:09:01;;;;;;;9.48;2.55;;;;;;;;;;5906015;28;20056;-82
2023/07/20 04:11:52;;;;;;;6.95;2.50;;;;;;;;;;5905734;28;20036;-81
2023/07/20 04:14:42;;;;;;;5.32;2.55;;;;;;;;;;5905672;28;20063;-81
2023/07/20 04:17:33;;;;;;;3.60;2.38;;;;;;;;;;5905379;28;20063;-81
2023/07/20 04:20:24;;;;;;;5.82;2.45;;;;;;;;;;5905340;28;20488;-83
2023/07/20 04:23:15;;;;;;;3.53;2.28;;;;;;;;;;5905601;28;20040;-84
2023/07/20 04:26:06;;;;;;;9.45;2.78;;;;;;;;;;5905400;28;20059;-81
2023/07/20 04:28:59;;;;;;;5.53;2.65;;;;;;;;;;5905999;28;20052;-81
2023/07/20 04:31:49;;;;;;;6.15;3.10;;;;;;;;;;5905496;28;20530;-81
2023/07/20 04:34:40;;;;;;;3.15;2.20;;;;;;;;;;5905366;28;20446;-83
2023/07/20 04:37:31;;;;;;;4.00;2.33;;;;;;;;;;5905155;28;20660;-80
2023/07/20 04:40:22;;;;;;;4.22;2.63;;;;;;;;;;5904795;28;20495;-81
2023/07/20 04:43:14;;;;;;;7.50;2.60;;;;;;;;;;5904998;28;20056;-83
2023/07/20 04:46:05;;;;;;;4.18;2.22;;;;;;;;;;5905111;28;20047;-83
2023/07/20 04:48:55;;;;;;;5.47;2.25;;;;;;;;;;5905487;28;20052;-82
2023/07/20 04:51:46;;;;;;;10.15;2.80;;;;;;;;;;5904885;28;20056;-81
2023/07/20 04:54:37;;;;;;;7.60;2.10;;;;;;;;;;5905190;28;20315;-81
2023/07/20 04:57:28;;;;;;;4.90;2.00;;;;;;;;;;5909883;28;20041;-81
2023/07/20 05:00:19;;;;;;;3.85;1.98;;;;;;;;;;5909675;28;20499;-82
2023/07/20 05:03:10;;;;;;;4.95;2.05;;;;;;;;;;5909882;28;20056;-82
2023/07/20 05:06:01;;;;;;;6.00;2.15;;;;;;;;;;5910088;28;20117;-81
2023/07/20 05:08:52;;;;;;;12.30;2.05;;;;;;;;;;5910676;28;20482;-82
2023/07/20 05:11:44;;;;;;;5.90;2.13;;;;;;;;;;5909893;28;20070;-81
2023/07/20 05:14:35;;;;;;;5.70;2.35;;;;;;;;;;5909773;28;20491;-80
2023/07/20 05:17:26;;;;;;;3.58;2.10;;;;;;;;;;5909861;28;20055;-83
2023/07/20 05:20:17;;;;;;;4.30;2.28;;;;;;;;;;5909449;28;20047;-80
2023/07/20 05:23:08;;;;;;;4.78;2.22;;;;;;;;;;5908154;28;20395;-80
2023/07/20 05:25:59;;;;;;;6.15;2.25;;;;;;;;;;5910158;28;20521;-81
2023/07/20 05:28:50;;;;;;;3.00;1.92;;;;;;;;;;5909931;28;20044;-81
2023/07/20 05:31:41;;;;;;;6.75;2.40;;;;;;;;;;5909579;28;20040;-82
2023/07/20 05:34:31;;;;;;;4.40;2.00;;;;;;;;;;5909393;28;20052;-80
2023/07/20 05:37:22;;;;;;;4.60;2.10;;;;;;;;;;5909691;28;20045;-80
2023/07/20 05:40:18;;;;;;;4.13;2.22;;;;;;;;;;5891186;28;20052;-81
2023/07/20 05:43:10;;;;;;;6.63;2.25;;;;;;;;;;5908268;28;20060;-81
2023/07/20 05:46:02;;;;;;;9.88;2.50;;;;;;;;;;5909264;28;20450;-80
2023/07/20 05:48:52;;;;;;;3.05;1.80;;;;;;;;;;5909696;28;20106;-82
2023/07/20 05:51:43;;;;;;;6.03;2.38;;;;;;;;;;5908959;28;20048;-81
2023/07/20 05:54:34;;;;;;;3.70;2.22;;;;;;;;;;5909185;28;20070;-80
2023/07/20 05:57:25;;;;;;;5.13;2.30;;;;;;;;;;5908736;28;20048;-81
2023/07/20 06:00:19;;;;;;;5.60;2.55;;;;;;;;;;5908804;28;20044;-80
2023/07/20 06:03:10;;;;;;;8.20;2.45;;;;;;;;;;5908561;28;20079;-80
2023/07/20 06:06:02;;;;;;;3.40;2.17;;;;;;;;;;5908939;28;20048;-81
2023/07/20 06:08:52;;;;;;;3.97;2.40;;;;;;;;;;5908677;28;20056;-80
2023/07/20 06:11:43;;;;;;;6.88;2.95;;;;;;;;;;5908671;28;20048;-80
2023/07/20 06:14:34;;;;;;;4.55;2.20;;;;;;;;;;5908893;28;20384;-83
2023/07/20 06:17:25;;;;;;;8.25;2.17;;;;;;;;;;5908531;28;20049;-82
2023/07/20 06:20:16;;;;;;;4.82;2.40;;;;;;;;;;5908121;28;20060;-80
2023/07/20 06:23:07;;;;;;;6.43;2.15;;;;;;;;;;5908333;28;20053;-80
2023/07/20 06:25:58;;;;;;;5.68;2.40;;;;;;;;;;5908580;28;20452;-82
2023/07/20 06:28:48;;;;;;;10.13;2.08;;;;;;;;;;5908339;28;20076;-83
2023/07/20 06:31:39;;;;;;;3.38;2.13;;;;;;;;;;5907773;28;20044;-79
2023/07/20 06:34:30;;;;;;;4.97;1.77;;;;;;;;;;5907959;28;20058;-82
2023/07/20 06:37:21;;;;;;;3.25;1.80;;;;;;;;;;5907760;28;20414;-81
2023/07/20 06:40:12;;;;;;;2.33;1.67;;;;;;;;;;5906086;28;20052;-82
2023/07/20 06:43:06;;;;;;;4.57;2.00;;;;;;;;;;5906153;28;20055;-81
2023/07/20 06:45:59;;;;;;;6.72;2.20;;;;;;;;;;5908065;28;20395;-82
2023/07/20 06:48:50;;;;;;;8.73;3.08;;;;;;;;;;5907351;28;20051;-83
2023/07/20 06:51:44;;;;;;;9.18;3.10;;;;;;;;;;5905911;28;20041;-81
2023/07/20 06:54:35;;;;;;;12.80;3.88;;;;;;;;;;5906734;28;20411;-82
2023/07/20 06:57:26;;;;;;;8.65;3.90;;;;;;;;;;5907206;28;20123;-82
2023/07/20 07:00:18;;;;;;;9.02;3.90;;;;;;;;;;5907103;28;20528;-82
2023/07/20 07:03:08;;;;;;;6.80;3.28;;;;;;;;;;5907340;28;20056;-81
2023/07/20 07:06:00;;;;;;;11.02;4.35;;;;;;;;;;5907448;28;20051;-83
2023/07/20 07:08:52;;;;;;;10.38;4.00;;;;;;;;;;5907248;28;20086;-83
2023/07/20 07:11:43;;;;;;;7.55;3.72;;;;;;;;;;5906833;28;20044;-81
2023/07/20 07:14:34;;;;;;;8.45;3.22;;;;;;;;;;5906575;28;20047;-82
2023/07/20 07:17:26;;;;;;;6.85;2.90;;;;;;;;;;5904705;28;20117;-84
2023/07/20 07:20:17;;;;;;;12.73;4.05;;;;;;;;;;5905645;28;20045;-82
2023/07/20 07:23:11;;;;;;;5.80;3.08;;;;;;;;;;5906793;28;20177;-82
2023/07/20 07:26:01;;;;;;;7.47;2.70;;;;;;;;;;5906543;28;20394;-80
2023/07/20 07:28:52;;;;;;;6.35;2.67;;;;;;;;;;5906043;28;20051;-80
2023/07/20 07:31:43;;;;;;;7.20;2.90;;;;;;;;;;5906370;28;20045;-81
2023/07/20 07:34:34;;;;;;;7.82;3.15;;;;;;;;;;5906133;28;20228;-80
2023/07/20 07:37:25;;;;;;;8.57;2.05;;;;;;;;;;5906550;28;20049;-82
2023/07/20 07:40:16;;;;;;;4.03;1.60;;;;;;;;;;5906230;28;20052;-79
2023/07/20 07:43:08;;;;;;;2.80;1.40;;;;;;;;;;5906009;28;20431;-81
2023/07/20 07:45:59;;;;;;;2.45;0.90;;;;;;;;;;5906423;28;20090;-81
2023/07/20 07:48:50;;;;;;;3.47;1.10;;;;;;;;;;5906225;28;20047;-80
2023/07/20 07:51:41;;;;;;;3.50;1.00;;;;;;;;;;5906005;28;20400;-81
2023/07/20 07:54:32;;;;;;;3.05;1.00;;;;;;;;;;5906186;28;20056;-81
2023/07/20 07:57:22;;;;;;;2.55;1.30;;;;;;;;;;5906068;28;20048;-80
2023/07/20 08:00:15;;;;;;;5.18;1.35;;;;;;;;;;5905991;28;20044;-80
2023/07/20 08:03:09;;;;;;;5.78;1.23;;;;;;;;;;5904625;28;20491;-82
2023/07/20 08:06:00;;;;;;;4.05;1.52;;;;;;;;;;5906337;28;20580;-80
2023/07/20 08:08:50;;;;;;;3.90;1.48;;;;;;;;;;5905456;28;20040;-80
2023/07/20 08:11:41;;;;;;;3.95;1.48;;;;;;;;;;5905692;28;20040;-82
2023/07/20 08:14:32;;;;;;;4.50;1.58;;;;;;;;;;5905362;28;20044;-81
2023/07/20 08:17:23;;;;;;;2.40;1.15;;;;;;;;;;5905788;28;20632;-81
2023/07/20 08:20:16;;;;;;;2.15;1.05;;;;;;;;;;5904146;28;20392;-80
2023/07/20 08:23:07;;;;;;;1.42;0.82;;;;;;;;;;5904144;28;20557;-80
2023/07/20 08:25:57;;;;;;;2.33;1.20;;;;;;;;;;5906030;28;20056;-79
2023/07/20 08:28:48;;;;;;;7.43;1.30;;;;;;;;;;5905515;28;20114;-80
2023/07/20 08:31:40;;;;;;;7.53;1.75;;;;;;;;;;5903683;28;20055;-80
2023/07/20 08:34:31;;;;;;;5.50;1.40;;;;;;;;;;5905317;28;20518;-80
2023/07/20 08:37:22;;;;;;;2.03;1.20;;;;;;;;;;5905120;28;20188;-80
2023/07/20 08:40:14;;;;;;;2.90;1.60;;;;;;;;;;5905294;28;20067;-80
2023/07/20 08:43:05;;;;;;;1.98;1.45;;;;;;;;;;5904247;28;20102;-79
2023/07/20 08:45:56;;;;;;;4.63;1.20;;;;;;;;;;5904046;28;20546;-80
2023/07/20 08:48:47;;;;;;;3.88;1.25;;;;;;;;;;5905261;28;20048;-79
2023/07/20 08:51:40;;;;;;;6.00;1.38;;;;;;;;;;5903507;28;20486;-79
2023/07/20 08:54:32;;;;;;;2.05;1.02;;;;;;;;;;5903583;28;20410;-80
2023/07/20 08:57:23;;;;;;;3.15;1.08;;;;;;;;;;5903545;28;20049;-79
2023/07/20 09:00:17;;;;;;;3.30;1.20;;;;;;;;;;5903208;28;20466;-80
2023/07/20 09:03:08;;;;;;;6.10;1.10;;;;;;;;;;5903399;28;20049;-79
2023/07/20 09:06:00;;;;;;;2.72;1.23;;;;;;;;;;5904050;28;20044;-81
2023/07/20 09:08:51;;;;;;;4.15;1.50;;;;;;;;;;5904868;28;20063;-79
2023/07/20 09:11:42;;;;;;;1.70;1.30;;;;;;;;;;5904708;28;20390;-79
2023/07/20 09:14:37;;;;;;;2.95;1.27;;;;;;;;;;5904727;28;20056;-79
2023/07/20 09:17:28;;;;;;;3.42;1.50;;;;;;;;;;5904773;28;20040;-79
2023/07/20 09:20:21;;;;;;;2.00;1.42;;;;;;;;;;5904243;28;20566;-79
2023/07/20 09:23:13;;;;;;;3.40;1.25;;;;;;;;;;5904214;28;20136;-80
2023/07/20 09:26:12;;;;;;;2.08;1.60;;;;;;;;;;5904620;28;20062;-80
2023/07/20 09:29:08;;;;;;;2.20;1.35;;;;;;;;;;5905014;28;20052;-79
2023/07/20 09:32:04;;;;;;;3.22;1.80;;;;;;;;;;5903478;28;20406;-82
2023/07/20 09:34:55;;;;;;;2.80;1.67;;;;;;;;;;5903127;28;20062;-80
2023/07/20 09:37:58;;;;;;;1.77;1.40;;;;;;;;;;5903076;28;20072;-79
2023/07/20 09:40:52;;;;;;;3.55;1.73;;;;;;;;;;5903843;28;20052;-80
2023/07/20 09:43:45;;;;;;;2.35;1.48;;;;;;;;;;5907220;28;20082;-81
2023/07/20 09:46:50;;;;;;;2.03;1.30;;;;;;;;;;5907344;28;20051;-80
2023/07/20 09:49:44;;;;;;;2.78;1.20;;;;;;;;;;5906938;28;20053;-80
2023/07/20 09:52:44;;;;;;;2.15;1.40;;;;;;;;;;5908125;28;20041;-79
2023/07/20 09:55:39;;;;;;;3.38;1.70;;;;;;;;;;5908099;28;20044;-79
2023/07/20 09:58:32;;;;;;;2.35;1.15;;;;;;;;;;5908399;28;20040;-79
2023/07/20 10:01:27;;;;;;;6.85;1.77;;;;;;;;;;5906800;28;20051;-79
2023/07/20 10:04:20;;;;;;;4.03;2.00;;;;;;;;;;5906596;28;20465;-80
2023/07/20 10:07:13;;;;;;;6.13;2.28;;;;;;;;;;5908167;28;20408;-80
2023/07/20 10:10:07;;;;;;;2.20;1.60;;;;;;;;;;5906587;28;20056;-81
2023/07/20 10:13:00;;;;;;;5.38;1.55;;;;;;;;;;5908795;28;20048;-80
2023/07/20 10:15:58;;;;;;;3.10;1.58;;;;;;;;;;5908350;28;20045;-79
2023/07/20 10:19:20;;;;;;;2.97;1.38;;;;;;;;;;5908122;28;20393;-81
2023/07/20 10:22:17;;;;;;;2.35;1.55;;;;;;;;;;5907558;28;20499;-79
2023/07/20 10:25:08;;;;;;;2.83;1.67;;;;;;;;;;5907284;28;20059;-82
2023/07/20 10:28:00;;;;;;;3.00;1.77;;;;;;;;;;5908416;28;20198;-80
2023/07/20 10:30:53;;;;;;;4.25;2.13;;;;;;;;;;5906065;28;20388;-79
2023/07/20 10:33:44;;;;;;;1.73;1.08;;;;;;;;;;5907292;28;20052;-79
2023/07/20 10:36:46;;;;;;;1.80;1.20;;;;;;;;;;5907496;28;20520;-80
2023/07/20 10:39:36;;;;;;;5.22;2.03;;;;;;;;;;5907345;28;20201;-79
2023/07/20 10:42:33;;;;;;;2.63;1.70;;;;;;;;;;5907180;28;20506;-79
2023/07/20 10:45:38;;;;;;;2.47;1.40;;;;;;;;;;5889350;28;20055;-80
2023/07/20 10:48:29;;;;;;;2.95;1.30;;;;;;;;;;5907504;28;20044;-79
2023/07/20 10:51:21;;;;;;;3.20;1.30;;;;;;;;;;5905675;28;20041;-83
2023/07/20 10:54:17;;;;;;;1.52;1.08;;;;;;;;;;5906167;28;20526;-79
2023/07/20 10:57:31;;;;;;;1.85;1.27;;;;;;;;;;5906811;28;20055;-81
2023/07/20 11:00:24;;;;;;;1.70;1.30;;;;;;;;;;5906696;28;20057;-81
2023/07/20 11:03:28;;;;;;;3.60;1.23;;;;;;;;;;5905065;28;20517;-80
2023/07/20 11:06:24;;;;;;;3.65;1.73;;;;;;;;;;5905161;28;20048;-82
2023/07/20 11:09:15;;;;;;;2.42;1.60;;;;;;;;;;5906267;28;20049;-80
2023/07/20 11:12:13;;;;;;;2.45;1.40;;;;;;;;;;5907022;28;20530;-82
2023/07/20 11:15:05;;;;;;;7.72;1.80;;;;;;;;;;5905964;28;20425;-80
2023/07/20 11:18:12;;;;;;;3.03;1.50;;;;;;;;;;5904917;28;20052;-79
2023/07/20 11:21:03;;;;;;;2.08;1.67;;;;;;;;;;5906327;28;20048;-83
2023/07/20 11:23:54;;;;;;;1.85;1.20;;;;;;;;;;5906921;28;20428;-83
2023/07/20 11:26:53;;;;;;;6.22;1.50;;;;;;;;;;5906266;28;20495;-81
2023/07/20 11:29:45;;;;;;;2.20;1.38;;;;;;;;;;5905949;28;20048;-81
2023/07/20 11:32:36;;;;;;;2.67;1.77;;;;;;;;;;5905966;28;20415;-82
2023/07/20 11:35:27;;;;;;;2.33;1.15;;;;;;;;;;5904660;28;20179;-79
2023/07/20 11:38:17;;;;;;;3.75;1.30;;;;;;;;;;5906041;28;20064;-80
2023/07/20 11:41:08;;;;;;;2.50;1.25;;;;;;;;;;5904703;28;20498;-80
2023/07/20 11:43:59;;;;;;;1.80;1.30;;;;;;;;;;5905156;28;20446;-80
2023/07/20 11:46:50;;;;;;;1.92;1.05;;;;;;;;;;5904698;28;20501;-80
2023/07/20 11:49:43;;;;;;;1.77;1.10;;;;;;;;;;5905699;28;20045;-80
2023/07/20 11:52:35;;;;;;;1.27;1.00;;;;;;;;;;5905773;28;20063;-79
2023/07/20 11:55:26;;;;;;;4.82;1.10;;;;;;;;;;5904612;28;20676;-80
2023/07/20 11:58:17;;;;;;;4.57;1.27;;;;;;;;;;5905575;28;20055;-79
2023/07/20 12:01:08;;;;;;;5.40;1.60;;;;;;;;;;5903080;28;20054;-79
2023/07/20 12:04:03;;;;;;;4.20;1.20;;;;;;;;;;5904310;28;20048;-80
2023/07/20 12:06:55;;;;;;;5.60;1.00;;;;;;;;;;5903744;28;20044;-80
2023/07/20 12:10:11;;;;;;;1.92;1.15;;;;;;;;;;5905512;28;20048;-80
2023/07/20 12:13:06;;;;;;;2.95;0.95;;;;;;;;;;5904776;28;20040;-79
2023/07/20 12:16:08;;;;;;;1.10;0.80;;;;;;;;;;5905670;28;20439;-80
2023/07/20 12:19:17;;;;;;;1.55;0.93;;;;;;;;;;5904096;28;20040;-81
2023/07/20 12:22:08;;;;;;;3.15;1.13;;;;;;;;;;5904572;28;20041;-82
2023/07/20 12:24:59;;;;;;;2.13;0.82;;;;;;;;;;5905739;28;20048;-81
2023/07/20 12:27:50;;;;;;;1.00;0.75;;;;;;;;;;5905254;28;20051;-81
2023/07/20 12:30:42;;;;;;;4.15;1.00;;;;;;;;;;5905460;28;20044;-81
2023/07/20 12:33:33;;;;;;;5.38;1.00;;;;;;;;;;5905194;28;20068;-81
2023/07/20 12:36:24;;;;;;;1.48;0.80;;;;;;;;;;5905001;28;20059;-80
2023/07/20 12:39:16;;;;;;;5.28;0.98;;;;;;;;;;5904596;28;20040;-81
2023/07/20 12:42:06;;;;;;;1.42;0.70;;;;;;;;;;5903925;28;20050;-79
2023/07/20 12:44:57;;;;;;;2.10;0.82;;;;;;;;;;5905507;28;20070;-80
2023/07/20 12:47:49;;;;;;;2.00;0.95;;;;;;;;;;5913247;28;20052;-80
2023/07/20 12:50:40;;;;;;;2.67;0.90;;;;;;;;;;5880548;28;20068;-81
2023/07/20 12:53:32;;;;;;;2.85;0.70;;;;;;;;;;5899209;28;20045;-78
2023/07/20 12:56:23;;;;;;;2.72;1.17;;;;;;;;;;5905070;28;20868;-78
2023/07/20 12:59:16;;;;;;;3.10;1.05;;;;;;;;;;5905174;28;20044;-80
2023/07/20 13:02:07;;;;;;;2.08;0.88;;;;;;;;;;5902450;28;20499;-79
2023/07/20 13:04:58;;;;;;;1.70;1.00;;;;;;;;;;5904635;28;20287;-80
2023/07/20 13:07:49;;;;;;;7.35;0.70;;;;;;;;;;5904678;28;20051;-77
2023/07/20 13:10:43;;;;;;;0.73;0.43;;;;;;;;;;5902687;28;20033;-78
2023/07/20 13:13:34;;;;;;;2.67;0.47;;;;;;;;;;5905276;28;20052;-79
2023/07/20 13:16:27;;;;;;;1.42;0.80;;;;;;;;;;5904883;28;20051;-80
2023/07/20 13:19:18;;;;;;;1.85;0.60;;;;;;;;;;5908120;28;20499;-79
2023/07/20 13:22:09;;;;;;;1.10;0.68;;;;;;;;;;5909337;28;20418;-78
2023/07/20 13:24:59;;;;;;;1.00;0.60;;;;;;;;;;5909601;28;20083;-79
2023/07/20 13:27:50;;;;;;;1.27;0.70;;;;;;;;;;5907279;28;20036;-79
2023/07/20 13:30:41;;;;;;;0.95;0.80;;;;;;;;;;5909174;28;20049;-79
2023/07/20 13:33:32;;;;;;;1.58;0.65;;;;;;;;;;5908882;28;20329;-78
2023/07/20 13:36:29;;;;;;;1.15;0.70;;;;;;;;;;5908902;28;20048;-79
2023/07/20 13:39:24;;;;;;;0.98;0.68;;;;;;;;;;5908862;28;20466;-79
2023/07/20 13:42:14;;;;;;;1.40;0.90;;;;;;;;;;5908485;28;20415;-79
2023/07/20 13:45:07;;;;;;;1.33;0.98;;;;;;;;;;5908461;28;20071;-79
2023/07/20 13:47:58;;;;;;;1.30;0.70;;;;;;;;;;5907421;28;20052;-79
2023/07/20 13:50:53;;;;;;;3.45;1.15;;;;;;;;;;5908362;28;20053;-79
2023/07/20 13:53:48;;;;;;;1.83;1.02;;;;;;;;;;5908357;28;20534;-80
2023/07/20 13:56:42;;;;;;;4.70;0.90;;;;;;;;;;5907988;28;20079;-81
2023/07/20 13:59:33;;;;;;;3.13;1.20;;;;;;;;;;5908402;28;20048;-79
2023/07/20 14:02:23;;;;;;;2.60;1.00;;;;;;;;;;5908123;28;20044;-80
2023/07/20 14:05:19;;;;;;;4.18;2.20;;;;;;;;;;5907855;28;20380;-80
2023/07/20 14:08:13;;;;;;;2.00;1.33;;;;;;;;;;5922978;28;20052;-80
2023/07/20 14:11:03;;;;;;;4.03;1.02;;;;;;;;;;5906713;28;20423;-80
2023/07/20 14:13:58;;;;;;;3.38;1.13;;;;;;;;;;5892254;28;20056;-79
2023/07/20 14:16:49;;;;;;;2.50;0.98;;;;;;;;;;5907146;28;20036;-78
2023/07/20 14:19:40;;;;;;;3.63;1.52;;;;;;;;;;5907672;28;20407;-78
2023/07/20 14:22:33;;;;;;;25.00;4.25;;;;;;;;;;5901751;28;20127;-79
2023/07/20 14:25:23;;;;;;;1.33;0.85;;;;;;;;;;5905653;28;20048;-79
2023/07/20 14:28:14;;;;;;;2.13;0.90;;;;;;;;;;5931631;28;20422;-77
2023/07/20 14:31:05;;;;;;;1.65;1.08;;;;;;;;;;5908451;28;20127;-78
2023/07/20 14:33:56;;;;;;;46.22;6.32;;;;;;;;;;5908105;28;20052;-79
2023/07/20 14:36:49;;;;;;;3.63;1.10;;;;;;;;;;5907444;28;20127;-78
2023/07/20 14:39:40;;;;;;;10.40;1.98;;;;;;;;;;5907045;28;20170;-77
2023/07/20 14:42:32;;;;;;;2.53;1.05;;;;;;;;;;5907575;28;20655;-79
2023/07/20 14:45:22;;;;;;;6.38;1.90;;;;;;;;;;5906970;28;20132;-76
2023/07/20 14:48:13;;;;;;;5.90;1.80;;;;;;;;;;5907772;28;20506;-77
2023/07/20 14:51:04;;;;;;;124.30;12.27;;;;;;;;;;5907738;28;20045;-78
2023/07/20 14:53:55;;;;;;;4.82;1.33;;;;;;;;;;5907778;28;20145;-77
2023/07/20 14:56:53;;;;;;;4.55;0.90;;;;;;;;;;5905960;28;20044;-76
2023/07/20 14:59:44;;;;;;;2.88;1.08;;;;;;;;;;5894134;28;20060;-76
2023/07/20 15:02:35;;;;;;;1.80;0.80;;;;;;;;;;5883367;28;20412;-78
2023/07/20 15:05:27;;;;;;;2.92;1.00;;;;;;;;;;5899832;28;20127;-76
2023/07/20 15:08:19;;;;;;;2.05;0.70;;;;;;;;;;5906548;28;20400;-76
2023/07/20 15:11:09;;;;;;;1.38;0.82;;;;;;;;;;5905740;28;20048;-77
2023/07/20 15:14:01;;;;;;;1.77;0.85;;;;;;;;;;5906389;28;20049;-80
2023/07/20 15:16:52;;;;;;;5.22;0.80;;;;;;;;;;5906174;28;20037;-78
2023/07/20 15:19:42;;;;;;;11.93;1.40;;;;;;;;;;5905820;28;20052;-78
2023/07/20 15:22:35;;;;;;;320.27;38.75;;;;;;;;;;5905949;28;20063;-78
2023/07/20 15:25:26;;;;;;;63.00;8.52;;;;;;;;;;5922807;28;20063;-78
2023/07/20 15:28:17;;;;;;;417.55;54.30;;;;;;;;;;5929459;28;20048;-78
2023/07/20 15:31:08;;;;;;;92.60;9.70;;;;;;;;;;5905727;28;20048;-78
2023/07/20 15:33:58;;;;;;;42.30;6.00;;;;;;;;;;5905549;28;20049;-79
2023/07/20 15:36:50;;;;;;;3.72;1.23;;;;;;;;;;5905053;28;20101;-80
2023/07/20 15:39:41;;;;;;;0.85;0.55;;;;;;;;;;5903605;28;20130;-81
2023/07/20 15:42:32;;;;;;;2.60;0.80;;;;;;;;;;5903742;28;20052;-81
2023/07/20 15:45:28;;;;;;;115.45;18.17;;;;;;;;;;5904942;28;20047;-79
2023/07/20 15:48:19;;;;;;;35.80;6.80;;;;;;;;;;5905306;28;20048;-80
2023/07/20 15:51:10;;;;;;;6.30;1.60;;;;;;;;;;5882412;28;20619;-79
2023/07/20 15:54:02;;;;;;;8.52;2.10;;;;;;;;;;5887762;28;20067;-80
2023/07/20 15:56:56;;;;;;;31.77;5.38;;;;;;;;;;5905743;28;20052;-79
2023/07/20 15:59:47;;;;;;;22.08;2.95;;;;;;;;;;5904943;28;20041;-78
2023/07/20 16:02:38;;;;;;;2.35;1.02;;;;;;;;;;5905161;28;20044;-79
2023/07/20 16:05:30;;;;;;;9.63;2.38;;;;;;;;;;5904793;28;20040;-81
2023/07/20 16:08:22;;;;;;;14.13;3.78;;;;;;;;;;5905145;28;20182;-79
2023/07/20 16:11:13;;;;;;;15.25;3.83;;;;;;;;;;5905026;28;20437;-79
2023/07/20 16:14:06;;;;;;;7.18;3.42;;;;;;;;;;5903456;28;20052;-80
2023/07/20 16:16:57;;;;;;;1.50;0.93;;;;;;;;;;5896035;28;20052;-79
2023/07/20 16:19:48;;;;;;;2.25;0.85;;;;;;;;;;5904478;28;20048;-79
2023/07/20 16:22:39;;;;;;;6.47;1.30;;;;;;;;;;5905326;28;20056;-79
2023/07/20 16:25:30;;;;;;;498.92;67.15;;;;;;;;;;5903816;28;20554;-79
2023/07/20 16:28:21;;;;;;;1930.10;238.30;;;;;;;;;;5904859;28;20059;-78
2023/07/20 16:31:16;;;;;;;10.85;5.78;;;;;;;;;;5904532;28;20503;-80
2023/07/20 16:34:07;;;;;;;2.25;1.23;;;;;;;;;;5897141;28;20106;-79
2023/07/20 16:36:59;;;;;;;19.15;1.63;;;;;;;;;;5904958;28;20059;-80
2023/07/20 16:39:53;;;;;;;19.10;1.50;;;;;;;;;;5900118;28;20671;-78
2023/07/20 16:42:45;;;;;;;2.85;0.95;;;;;;;;;;5898849;28;20414;-77
2023/07/20 16:45:39;;;;;;;2.17;0.90;;;;;;;;;;5913001;28;20051;-75
2023/07/20 16:48:30;;;;;;;8.35;1.27;;;;;;;;;;5903627;28;20051;-79
2023/07/20 16:51:21;;;;;;;20.55;1.70;;;;;;;;;;5902132;28;21713;-80
2023/07/20 16:54:12;;;;;;;5.82;2.38;;;;;;;;;;5908399;28;20048;-80
2023/07/20 16:57:10;;;;;;;3.78;1.83;;;;;;;;;;5908708;28;20530;-77
2023/07/20 17:00:06;;;;;;;6.05;2.13;;;;;;;;;;5895377;28;20045;-77
2023/07/20 17:02:57;;;;;;;7.57;3.97;;;;;;;;;;5905989;28;20052;-80
2023/07/20 17:05:48;;;;;;;13.68;2.45;;;;;;;;;;5908507;28;20048;-77
2023/07/20 17:08:39;;;;;;;2.63;0.70;;;;;;;;;;5908903;28;20044;-80
2023/07/20 17:11:30;;;;;;;4.10;0.90;;;;;;;;;;5898860;28;20410;-81